Time;durP1;ratioP1;P1;durP2;ratioP2;P2;SDS_P1;SDS_P2;PMS_P1;PMS_P2;Temp;Humidity;BMP_temperature;BMP_pressure;BME280_temperature;BME280_humidity;BME280_pressure;Samples;Min_cycle;Max_cycle;Signal;HPM_P1;HPM_P2
2021/09/16 00:00:05;;;;;;;8.97;5.17;;;;;;;;;;5078576;28;20448;-71
2021/09/16 00:02:34;;;;;;;8.43;5.57;;;;;;;;;;5078741;28;20499;-71
2021/09/16 00:05:02;;;;;;;7.77;5.73;;;;;;;;;;5079035;28;20463;-71
2021/09/16 00:07:30;;;;;;;10.13;5.23;;;;;;;;;;5078470;28;20872;-71
2021/09/16 00:09:58;;;;;;;9.60;6.00;;;;;;;;;;5078425;28;20732;-71
2021/09/16 00:12:26;;;;;;;11.60;5.10;;;;;;;;;;5078651;28;20460;-71
2021/09/16 00:14:54;;;;;;;11.80;5.53;;;;;;;;;;5078386;28;20468;-71
2021/09/16 00:17:22;;;;;;;7.33;5.10;;;;;;;;;;5080842;28;20445;-71
2021/09/16 00:19:52;;;;;;;6.83;5.60;;;;;;;;;;5078791;28;20825;-71
2021/09/16 00:22:19;;;;;;;7.80;5.07;;;;;;;;;;5078757;28;20824;-71
2021/09/16 00:24:47;;;;;;;12.00;5.47;;;;;;;;;;5078453;28;20542;-70
2021/09/16 00:27:15;;;;;;;8.47;5.30;;;;;;;;;;5078335;28;20817;-73
2021/09/16 00:29:43;;;;;;;8.30;4.93;;;;;;;;;;5078150;28;20457;-72
2021/09/16 00:32:13;;;;;;;7.40;6.13;;;;;;;;;;5078669;28;20839;-72
2021/09/16 00:34:41;;;;;;;6.70;5.17;;;;;;;;;;5078708;28;20518;-72
2021/09/16 00:37:10;;;;;;;9.50;5.40;;;;;;;;;;5077591;28;20452;-72
2021/09/16 00:39:38;;;;;;;9.20;6.70;;;;;;;;;;5077888;28;20530;-71
2021/09/16 00:42:06;;;;;;;8.90;6.00;;;;;;;;;;5078351;28;20507;-72
2021/09/16 00:44:34;;;;;;;8.70;5.60;;;;;;;;;;5077878;28;20459;-71
2021/09/16 00:47:02;;;;;;;12.57;5.40;;;;;;;;;;5077992;28;20467;-71
2021/09/16 00:49:30;;;;;;;9.07;5.20;;;;;;;;;;5077796;28;20471;-72
2021/09/16 00:51:59;;;;;;;8.77;5.40;;;;;;;;;;5077367;28;20617;-71
2021/09/16 00:54:29;;;;;;;10.23;5.27;;;;;;;;;;5077731;28;20461;-72
2021/09/16 00:56:57;;;;;;;12.67;5.83;;;;;;;;;;5077487;28;20734;-71
2021/09/16 00:59:26;;;;;;;8.80;6.00;;;;;;;;;;5077291;28;20496;-71
2021/09/16 01:01:54;;;;;;;7.70;5.23;;;;;;;;;;5077289;28;20484;-72
2021/09/16 01:04:22;;;;;;;7.23;4.90;;;;;;;;;;5077622;28;20460;-72
2021/09/16 01:06:50;;;;;;;6.43;5.17;;;;;;;;;;5077939;28;20464;-72
2021/09/16 01:09:18;;;;;;;9.90;5.90;;;;;;;;;;5077398;28;20457;-72
2021/09/16 01:11:47;;;;;;;14.87;5.70;;;;;;;;;;5077732;28;20467;-72
2021/09/16 01:14:22;;;;;;;7.60;5.60;;;;;;;;;;5077472;28;20468;-71
2021/09/16 01:16:50;;;;;;;12.33;5.70;;;;;;;;;;5077653;28;20833;-72
2021/09/16 01:19:18;;;;;;;11.27;5.60;;;;;;;;;;5077452;28;20470;-72
2021/09/16 01:21:46;;;;;;;12.67;6.20;;;;;;;;;;5077240;28;20484;-72
2021/09/16 01:24:16;;;;;;;7.43;5.27;;;;;;;;;;5077480;28;20471;-72
2021/09/16 01:26:44;;;;;;;7.13;5.17;;;;;;;;;;5077590;28;20845;-72
2021/09/16 01:29:14;;;;;;;5.00;4.33;;;;;;;;;;5077819;28;20792;-71
2021/09/16 01:31:44;;;;;;;9.10;5.37;;;;;;;;;;5077077;28;20474;-72
2021/09/16 01:34:13;;;;;;;6.43;5.57;;;;;;;;;;5077131;28;20531;-72
2021/09/16 01:36:41;;;;;;;8.17;6.00;;;;;;;;;;5076927;28;20452;-72
2021/09/16 01:39:10;;;;;;;9.37;6.60;;;;;;;;;;5076703;28;20463;-71
2021/09/16 01:41:40;;;;;;;8.03;5.07;;;;;;;;;;5076926;28;20463;-72
2021/09/16 01:44:08;;;;;;;7.00;5.40;;;;;;;;;;5076491;28;20468;-71
2021/09/16 01:46:36;;;;;;;9.73;5.27;;;;;;;;;;5076969;28;20464;-71
2021/09/16 01:49:04;;;;;;;8.67;4.87;;;;;;;;;;5076835;28;20802;-71
2021/09/16 01:51:32;;;;;;;6.33;4.30;;;;;;;;;;5076877;28;20458;-71
2021/09/16 01:54:00;;;;;;;6.67;4.90;;;;;;;;;;5076563;28;20869;-72
2021/09/16 01:56:28;;;;;;;6.60;4.33;;;;;;;;;;5075728;28;20475;-71
2021/09/16 01:58:57;;;;;;;5.53;4.07;;;;;;;;;;5076202;28;20562;-71
2021/09/16 02:01:25;;;;;;;8.40;4.37;;;;;;;;;;5076414;28;20464;-71
2021/09/16 02:03:53;;;;;;;6.60;4.43;;;;;;;;;;5075691;28;20777;-71
2021/09/16 02:06:21;;;;;;;9.80;4.07;;;;;;;;;;5076302;28;20468;-71
2021/09/16 02:08:49;;;;;;;5.30;4.17;;;;;;;;;;5076255;28;20770;-72
2021/09/16 02:11:17;;;;;;;8.37;4.60;;;;;;;;;;5076132;28;20868;-71
2021/09/16 02:13:45;;;;;;;7.37;4.27;;;;;;;;;;5076528;28;20833;-71
2021/09/16 02:16:14;;;;;;;6.40;4.40;;;;;;;;;;5076632;28;20460;-71
2021/09/16 02:18:42;;;;;;;8.57;5.23;;;;;;;;;;5076173;28;20737;-71
2021/09/16 02:21:10;;;;;;;8.80;5.73;;;;;;;;;;5076677;28;20456;-71
2021/09/16 02:23:38;;;;;;;12.93;5.93;;;;;;;;;;5075689;28;20487;-71
2021/09/16 02:26:06;;;;;;;6.30;5.20;;;;;;;;;;5076442;28;20470;-71
2021/09/16 02:28:33;;;;;;;5.97;4.90;;;;;;;;;;5076135;28;20463;-71
2021/09/16 02:31:01;;;;;;;6.93;5.40;;;;;;;;;;5076123;28;20465;-71
2021/09/16 02:33:33;;;;;;;9.00;5.60;;;;;;;;;;5075890;28;20459;-72
2021/09/16 02:36:01;;;;;;;8.17;4.00;;;;;;;;;;5075867;28;20468;-70
2021/09/16 02:38:29;;;;;;;6.20;5.27;;;;;;;;;;5076262;28;20452;-72
2021/09/16 02:40:57;;;;;;;10.87;4.80;;;;;;;;;;5076116;28;20468;-72
2021/09/16 02:43:25;;;;;;;5.40;4.00;;;;;;;;;;5075693;28;20480;-73
2021/09/16 02:45:53;;;;;;;10.40;4.37;;;;;;;;;;5076510;28;20460;-72
2021/09/16 02:48:20;;;;;;;6.43;4.40;;;;;;;;;;5076000;28;20749;-72
2021/09/16 02:50:50;;;;;;;10.03;5.50;;;;;;;;;;5075574;28;20475;-72
2021/09/16 02:53:18;;;;;;;8.87;6.10;;;;;;;;;;5075846;28;20498;-72
2021/09/16 02:55:45;;;;;;;8.30;5.83;;;;;;;;;;5076274;28;20930;-72
2021/09/16 02:58:13;;;;;;;8.07;6.23;;;;;;;;;;5076234;28;20453;-72
2021/09/16 03:00:41;;;;;;;7.97;5.80;;;;;;;;;;5075781;28;20464;-72
2021/09/16 03:03:09;;;;;;;12.70;9.10;;;;;;;;;;5075296;28;20583;-71
2021/09/16 03:05:37;;;;;;;7.70;5.57;;;;;;;;;;5075968;28;20496;-72
2021/09/16 03:08:06;;;;;;;5.40;4.40;;;;;;;;;;5075414;28;20456;-71
2021/09/16 03:10:34;;;;;;;6.17;4.20;;;;;;;;;;5075859;28;20472;-72
2021/09/16 03:13:02;;;;;;;5.23;3.67;;;;;;;;;;5075899;28;20892;-72
2021/09/16 03:15:33;;;;;;;5.23;3.63;;;;;;;;;;5079362;28;20468;-72
2021/09/16 03:18:01;;;;;;;5.30;2.40;;;;;;;;;;5080120;28;20456;-71
2021/09/16 03:20:29;;;;;;;11.10;2.40;;;;;;;;;;5078959;28;20547;-72
2021/09/16 03:22:56;;;;;;;3.00;1.50;;;;;;;;;;5079221;28;20498;-72
2021/09/16 03:25:26;;;;;;;4.27;1.70;;;;;;;;;;5079814;28;20464;-71
2021/09/16 03:27:53;;;;;;;3.77;1.97;;;;;;;;;;5079451;28;20460;-72
2021/09/16 03:30:21;;;;;;;7.40;2.17;;;;;;;;;;5079008;28;20744;-72
2021/09/16 03:32:49;;;;;;;2.03;1.50;;;;;;;;;;5079047;28;20538;-72
2021/09/16 03:35:17;;;;;;;2.00;1.60;;;;;;;;;;5095016;28;21122;-72
2021/09/16 03:37:45;;;;;;;3.77;2.20;;;;;;;;;;5099727;28;20478;-72
2021/09/16 03:40:13;;;;;;;3.97;1.70;;;;;;;;;;5091617;28;20459;-72
2021/09/16 03:42:43;;;;;;;4.20;1.13;;;;;;;;;;5099041;28;20486;-72
2021/09/16 03:45:11;;;;;;;3.30;1.23;;;;;;;;;;5099007;28;20491;-72
2021/09/16 03:47:39;;;;;;;3.67;1.30;;;;;;;;;;5098965;28;20943;-73
2021/09/16 03:50:08;;;;;;;3.20;1.40;;;;;;;;;;5097896;28;21584;-72
2021/09/16 03:52:36;;;;;;;2.97;1.57;;;;;;;;;;5099449;28;20461;-72
2021/09/16 03:55:05;;;;;;;7.60;1.40;;;;;;;;;;5099411;28;20596;-72
2021/09/16 03:57:33;;;;;;;2.43;1.47;;;;;;;;;;5099400;28;20455;-72
2021/09/16 04:00:06;;;;;;;4.17;1.53;;;;;;;;;;5098665;28;20455;-73
2021/09/16 04:02:34;;;;;;;4.43;1.43;;;;;;;;;;5097761;28;20479;-72
2021/09/16 04:05:05;;;;;;;5.33;1.73;;;;;;;;;;5098633;28;20460;-73
2021/09/16 04:07:33;;;;;;;5.00;1.77;;;;;;;;;;5098055;28;20452;-72
2021/09/16 04:10:01;;;;;;;5.80;1.40;;;;;;;;;;5098740;28;20836;-72
2021/09/16 04:12:29;;;;;;;2.77;1.00;;;;;;;;;;5098389;28;20847;-72
2021/09/16 04:14:57;;;;;;;4.30;1.10;;;;;;;;;;5099060;28;20455;-72
2021/09/16 04:17:26;;;;;;;2.33;1.17;;;;;;;;;;5098646;28;20546;-71
2021/09/16 04:19:54;;;;;;;2.33;1.20;;;;;;;;;;5098344;28;20532;-71
2021/09/16 04:22:22;;;;;;;1.97;0.90;;;;;;;;;;5098697;28;20805;-71
2021/09/16 04:24:50;;;;;;;2.07;0.90;;;;;;;;;;5098012;28;20585;-71
2021/09/16 04:27:18;;;;;;;2.40;1.10;;;;;;;;;;5097950;28;20487;-71
2021/09/16 04:29:46;;;;;;;15.30;5.83;;;;;;;;;;5097774;28;20467;-71
2021/09/16 04:32:14;;;;;;;7.63;1.10;;;;;;;;;;5097729;28;20473;-71
2021/09/16 04:34:43;;;;;;;3.40;0.90;;;;;;;;;;5098275;27;20538;-72
2021/09/16 04:37:11;;;;;;;1.80;0.80;;;;;;;;;;5097546;28;20537;-71
2021/09/16 04:39:39;;;;;;;1.80;0.70;;;;;;;;;;5097305;28;20458;-72
2021/09/16 04:42:07;;;;;;;2.70;0.97;;;;;;;;;;5097467;28;20860;-72
2021/09/16 04:44:35;;;;;;;3.00;1.40;;;;;;;;;;5097094;28;20479;-71
2021/09/16 04:47:03;;;;;;;4.87;0.90;;;;;;;;;;5097041;28;20459;-71
2021/09/16 04:49:31;;;;;;;3.07;1.20;;;;;;;;;;5096663;28;20452;-71
2021/09/16 04:52:00;;;;;;;4.23;1.13;;;;;;;;;;5098157;28;20513;-71
2021/09/16 04:54:28;;;;;;;2.63;0.97;;;;;;;;;;5097333;28;20442;-73
2021/09/16 04:56:56;;;;;;;4.23;1.53;;;;;;;;;;5097628;28;20581;-73
2021/09/16 04:59:27;;;;;;;2.60;0.80;;;;;;;;;;5097395;28;20513;-72
2021/09/16 05:01:55;;;;;;;1.53;0.87;;;;;;;;;;5096387;28;20510;-73
2021/09/16 05:04:24;;;;;;;2.90;1.03;;;;;;;;;;5077392;28;20740;-72
2021/09/16 05:06:52;;;;;;;2.00;0.83;;;;;;;;;;5075982;28;21133;-72
2021/09/16 05:09:22;;;;;;;2.17;0.70;;;;;;;;;;5076166;28;20483;-72
2021/09/16 05:11:50;;;;;;;4.33;1.07;;;;;;;;;;5074418;28;20491;-73
2021/09/16 05:14:17;;;;;;;7.87;1.67;;;;;;;;;;5074028;28;20453;-72
2021/09/16 05:16:45;;;;;;;11.93;1.93;;;;;;;;;;5075328;28;20452;-72
2021/09/16 05:19:13;;;;;;;3.70;0.77;;;;;;;;;;5075580;28;20443;-72
2021/09/16 05:21:41;;;;;;;4.10;0.90;;;;;;;;;;5075129;28;20887;-72
2021/09/16 05:24:09;;;;;;;3.83;1.43;;;;;;;;;;5074795;28;20542;-72
2021/09/16 05:26:40;;;;;;;7.97;1.27;;;;;;;;;;5074598;28;20526;-72
2021/09/16 05:29:08;;;;;;;2.90;0.80;;;;;;;;;;5073303;28;20452;-72
2021/09/16 05:31:36;;;;;;;2.27;1.10;;;;;;;;;;5091514;28;20490;-72
2021/09/16 05:34:04;;;;;;;2.50;0.70;;;;;;;;;;5095634;28;20463;-72
2021/09/16 05:36:32;;;;;;;2.93;1.23;;;;;;;;;;5096532;28;20550;-72
2021/09/16 05:39:00;;;;;;;5.77;1.00;;;;;;;;;;5093844;28;20448;-72
2021/09/16 05:41:30;;;;;;;1.97;0.80;;;;;;;;;;5087703;28;21099;-72
2021/09/16 05:43:59;;;;;;;2.87;1.10;;;;;;;;;;5078883;28;20956;-73
2021/09/16 05:46:27;;;;;;;6.30;1.30;;;;;;;;;;5094046;28;20463;-73
2021/09/16 05:48:55;;;;;;;2.50;1.17;;;;;;;;;;5091568;28;20452;-72
2021/09/16 05:51:23;;;;;;;2.87;1.27;;;;;;;;;;5090237;28;20473;-72
2021/09/16 05:53:51;;;;;;;4.23;1.00;;;;;;;;;;5092659;28;20458;-72
2021/09/16 05:56:20;;;;;;;5.87;1.33;;;;;;;;;;5073518;28;20887;-72
2021/09/16 05:58:48;;;;;;;7.90;1.07;;;;;;;;;;5072455;28;20887;-72
2021/09/16 06:01:17;;;;;;;4.80;1.40;;;;;;;;;;5081277;28;20773;-72
2021/09/16 06:03:45;;;;;;;5.97;1.40;;;;;;;;;;5091673;28;20488;-72
2021/09/16 06:06:15;;;;;;;3.47;1.40;;;;;;;;;;5093350;28;20471;-72
2021/09/16 06:08:43;;;;;;;2.03;1.10;;;;;;;;;;5092672;28;20454;-72
2021/09/16 06:11:12;;;;;;;2.70;1.30;;;;;;;;;;5092188;28;20455;-71
2021/09/16 06:13:43;;;;;;;2.77;1.40;;;;;;;;;;5073798;28;20742;-71
2021/09/16 06:16:13;;;;;;;2.80;1.53;;;;;;;;;;5075020;28;20551;-72
2021/09/16 06:18:47;;;;;;;9.43;2.10;;;;;;;;;;5080442;28;20460;-72
2021/09/16 06:21:16;;;;;;;3.67;1.23;;;;;;;;;;5093893;28;20847;-72
2021/09/16 06:23:44;;;;;;;4.33;1.50;;;;;;;;;;5096555;28;20537;-72
2021/09/16 06:26:18;;;;;;;2.43;1.30;;;;;;;;;;5095976;28;20983;-72
2021/09/16 06:28:45;;;;;;;2.80;1.27;;;;;;;;;;5094451;28;20454;-72
2021/09/16 06:31:16;;;;;;;4.90;1.53;;;;;;;;;;5094003;28;20462;-72
2021/09/16 06:33:45;;;;;;;2.87;1.13;;;;;;;;;;5103650;28;20447;-72
2021/09/16 06:36:18;;;;;;;3.83;1.37;;;;;;;;;;5094919;28;20482;-73
2021/09/16 06:38:49;;;;;;;4.03;1.33;;;;;;;;;;5095186;28;20459;-71
2021/09/16 06:41:17;;;;;;;4.60;1.57;;;;;;;;;;5095155;28;20459;-71
2021/09/16 06:43:46;;;;;;;2.53;1.30;;;;;;;;;;5087096;28;20480;-72
2021/09/16 06:46:14;;;;;;;3.33;1.30;;;;;;;;;;5094052;28;20548;-70
2021/09/16 06:48:42;;;;;;;2.27;1.47;;;;;;;;;;5093168;28;20879;-73
2021/09/16 06:51:11;;;;;;;3.93;1.20;;;;;;;;;;5095558;28;21065;-72
2021/09/16 06:53:39;;;;;;;11.53;4.60;;;;;;;;;;5094976;28;20514;-72
2021/09/16 06:56:07;;;;;;;7.00;2.20;;;;;;;;;;5094927;28;20566;-72
2021/09/16 06:58:35;;;;;;;4.70;1.40;;;;;;;;;;5089991;28;20443;-72
2021/09/16 07:01:09;;;;;;;6.77;1.53;;;;;;;;;;5092520;28;20464;-72
2021/09/16 07:03:37;;;;;;;3.00;1.60;;;;;;;;;;5094132;28;20483;-73
2021/09/16 07:06:05;;;;;;;3.37;2.00;;;;;;;;;;5094685;28;20451;-72
2021/09/16 07:08:40;;;;;;;5.30;1.67;;;;;;;;;;5090937;28;20448;-72
2021/09/16 07:11:08;;;;;;;6.10;1.97;;;;;;;;;;5093425;28;20459;-72
2021/09/16 07:13:40;;;;;;;3.00;1.10;;;;;;;;;;5085483;28;20531;-71
2021/09/16 07:16:11;;;;;;;1.97;1.00;;;;;;;;;;5087663;28;20467;-71
2021/09/16 07:18:39;;;;;;;4.60;1.13;;;;;;;;;;5082690;28;20464;-71
2021/09/16 07:21:08;;;;;;;10.87;2.10;;;;;;;;;;5074066;28;20841;-73
2021/09/16 07:23:39;;;;;;;3.50;1.80;;;;;;;;;;5074173;28;20981;-72
2021/09/16 07:26:13;;;;;;;3.00;1.73;;;;;;;;;;5074072;28;21079;-72
2021/09/16 07:28:41;;;;;;;5.00;1.57;;;;;;;;;;5089915;28;20513;-71
2021/09/16 07:31:13;;;;;;;3.53;1.60;;;;;;;;;;5083913;28;20459;-72
2021/09/16 07:33:41;;;;;;;4.30;1.77;;;;;;;;;;5082047;28;20479;-71
2021/09/16 07:36:09;;;;;;;4.13;1.80;;;;;;;;;;5074463;28;20468;-72
2021/09/16 07:38:39;;;;;;;4.80;1.57;;;;;;;;;;5057216;28;20543;-73
2021/09/16 07:41:07;;;;;;;5.03;2.00;;;;;;;;;;5075827;28;20472;-71
2021/09/16 07:43:35;;;;;;;5.73;2.57;;;;;;;;;;5073935;28;20480;-72
2021/09/16 07:46:04;;;;;;;6.17;2.70;;;;;;;;;;5074587;28;20448;-71
2021/09/16 07:48:32;;;;;;;6.30;2.50;;;;;;;;;;5079890;28;20460;-72
2021/09/16 07:51:00;;;;;;;7.03;1.93;;;;;;;;;;5093777;28;20504;-73
2021/09/16 07:53:30;;;;;;;6.53;2.07;;;;;;;;;;5094293;28;20470;-71
2021/09/16 07:56:00;;;;;;;8.80;2.17;;;;;;;;;;5094454;28;20455;-71
2021/09/16 07:58:30;;;;;;;3.43;1.53;;;;;;;;;;5094444;28;20684;-72
2021/09/16 08:01:01;;;;;;;6.10;2.07;;;;;;;;;;5091846;28;20552;-73
2021/09/16 08:03:33;;;;;;;4.63;2.17;;;;;;;;;;5099180;27;20453;-71
2021/09/16 08:06:14;;;;;;;4.53;1.60;;;;;;;;;;5096607;27;20447;-72
2021/09/16 08:08:57;;;;;;;4.33;2.33;;;;;;;;;;5091472;28;21018;-72
2021/09/16 08:11:29;;;;;;;3.97;2.17;;;;;;;;;;5097202;28;20450;-72
2021/09/16 08:14:11;;;;;;;4.50;1.80;;;;;;;;;;5098574;28;20463;-72
2021/09/16 08:16:39;;;;;;;2.80;1.90;;;;;;;;;;5094409;28;20470;-71
2021/09/16 08:19:07;;;;;;;3.17;2.00;;;;;;;;;;5095478;28;21010;-72
2021/09/16 08:21:36;;;;;;;6.50;2.07;;;;;;;;;;5097283;28;20872;-72
2021/09/16 08:24:04;;;;;;;4.03;2.40;;;;;;;;;;5089153;28;20479;-73
2021/09/16 08:26:37;;;;;;;2.27;1.60;;;;;;;;;;5097968;28;20466;-72
2021/09/16 08:29:08;;;;;;;4.07;1.60;;;;;;;;;;5096489;28;20465;-72
2021/09/16 08:31:37;;;;;;;6.73;2.33;;;;;;;;;;5090234;28;20538;-72
2021/09/16 08:34:05;;;;;;;5.07;2.07;;;;;;;;;;5094883;28;20467;-72
2021/09/16 08:36:33;;;;;;;4.17;1.80;;;;;;;;;;5097645;27;20555;-73
2021/09/16 08:39:01;;;;;;;5.60;1.83;;;;;;;;;;5096227;28;20543;-71
2021/09/16 08:41:29;;;;;;;4.00;2.57;;;;;;;;;;5095928;28;20534;-72
2021/09/16 08:44:01;;;;;;;6.90;1.87;;;;;;;;;;5093643;28;20582;-72
2021/09/16 08:46:30;;;;;;;3.00;1.53;;;;;;;;;;5099220;28;20882;-72
2021/09/16 08:49:04;;;;;;;4.30;2.07;;;;;;;;;;5096601;28;20459;-72
2021/09/16 08:51:35;;;;;;;3.10;2.23;;;;;;;;;;5096738;28;20945;-73
2021/09/16 08:54:04;;;;;;;3.30;2.10;;;;;;;;;;5095092;28;20462;-72
2021/09/16 08:56:32;;;;;;;3.43;1.67;;;;;;;;;;5095919;28;20505;-72
2021/09/16 08:59:05;;;;;;;3.37;2.10;;;;;;;;;;5094573;28;20491;-72
2021/09/16 09:01:33;;;;;;;4.60;2.10;;;;;;;;;;5095751;28;21146;-72
2021/09/16 09:04:01;;;;;;;5.77;2.37;;;;;;;;;;5096264;28;20515;-72
2021/09/16 09:06:32;;;;;;;5.73;1.60;;;;;;;;;;5096090;28;20567;-72
2021/09/16 09:09:16;;;;;;;3.73;2.20;;;;;;;;;;5091901;28;20480;-71
2021/09/16 09:11:55;;;;;;;5.97;2.57;;;;;;;;;;5075565;28;20514;-72
2021/09/16 09:14:25;;;;;;;5.80;2.73;;;;;;;;;;5090497;28;20465;-71
2021/09/16 09:16:53;;;;;;;6.43;1.90;;;;;;;;;;5086303;28;20472;-72
2021/09/16 09:19:22;;;;;;;3.93;2.83;;;;;;;;;;5096903;28;20458;-72
2021/09/16 09:21:50;;;;;;;8.07;2.47;;;;;;;;;;5100527;27;20471;-72
2021/09/16 09:24:33;;;;;;;4.13;2.17;;;;;;;;;;5095723;27;20546;-72
2021/09/16 09:27:02;;;;;;;5.40;3.00;;;;;;;;;;5094729;28;20795;-72
2021/09/16 09:29:33;;;;;;;3.70;1.97;;;;;;;;;;5109132;27;20855;-72
2021/09/16 09:32:02;;;;;;;4.53;2.37;;;;;;;;;;5095810;28;20463;-72
2021/09/16 09:34:37;;;;;;;3.93;3.10;;;;;;;;;;5096017;28;20461;-73
2021/09/16 09:37:14;;;;;;;7.60;4.30;;;;;;;;;;5087388;28;20550;-71
2021/09/16 09:39:45;;;;;;;4.20;2.67;;;;;;;;;;5095734;28;20914;-71
2021/09/16 09:42:21;;;;;;;3.83;2.40;;;;;;;;;;5097479;28;20848;-72
2021/09/16 09:44:56;;;;;;;2.70;2.10;;;;;;;;;;5096303;28;20494;-73
2021/09/16 09:47:37;;;;;;;7.37;3.37;;;;;;;;;;5095675;28;20707;-70
2021/09/16 09:50:07;;;;;;;7.70;3.80;;;;;;;;;;5095465;28;20494;-72
2021/09/16 09:52:35;;;;;;;9.10;3.33;;;;;;;;;;5095663;28;20491;-71
2021/09/16 09:55:12;;;;;;;6.97;3.10;;;;;;;;;;5092973;28;20515;-71
2021/09/16 09:57:41;;;;;;;4.20;2.43;;;;;;;;;;5094607;28;20471;-72
2021/09/16 10:00:15;;;;;;;5.47;3.10;;;;;;;;;;5095523;28;20559;-71
2021/09/16 10:02:49;;;;;;;3.77;2.23;;;;;;;;;;5089962;28;20531;-72
2021/09/16 10:05:29;;;;;;;7.13;3.77;;;;;;;;;;5094741;28;20764;-72
2021/09/16 10:07:58;;;;;;;4.50;3.13;;;;;;;;;;5096660;27;20743;-72
2021/09/16 10:10:52;;;;;;;6.27;3.40;;;;;;;;;;5087225;28;20890;-72
2021/09/16 10:13:52;;;;;;;8.13;3.10;;;;;;;;;;5078167;28;20449;-71
2021/09/16 10:16:30;;;;;;;8.60;3.60;;;;;;;;;;5091954;27;20486;-71
2021/09/16 10:19:02;;;;;;;3.77;3.37;;;;;;;;;;5095857;28;20532;-72
2021/09/16 10:21:42;;;;;;;10.30;4.03;;;;;;;;;;5090834;28;21085;-72
2021/09/16 10:24:17;;;;;;;4.10;3.10;;;;;;;;;;5095373;28;20550;-71
2021/09/16 10:26:53;;;;;;;5.87;3.47;;;;;;;;;;5088363;28;20459;-70
2021/09/16 10:29:36;;;;;;;4.33;3.03;;;;;;;;;;5095248;28;20547;-72
2021/09/16 10:32:23;;;;;;;5.03;3.20;;;;;;;;;;5095821;28;20529;-70
2021/09/16 10:34:58;;;;;;;6.67;3.03;;;;;;;;;;5094371;28;20454;-72
2021/09/16 10:37:36;;;;;;;4.50;3.17;;;;;;;;;;5094941;28;20612;-71
2021/09/16 10:40:21;;;;;;;5.33;2.63;;;;;;;;;;5094019;28;20483;-71
2021/09/16 10:42:52;;;;;;;5.67;2.43;;;;;;;;;;5086359;28;20475;-70
2021/09/16 10:45:33;;;;;;;5.47;3.40;;;;;;;;;;5073008;28;20748;-71
2021/09/16 10:48:19;;;;;;;9.17;3.90;;;;;;;;;;5082088;28;20933;-72
2021/09/16 10:50:50;;;;;;;5.97;3.77;;;;;;;;;;5092827;28;20466;-73
2021/09/16 10:53:48;;;;;;;3.80;2.90;;;;;;;;;;5093864;28;20496;-71
2021/09/16 10:56:35;;;;;;;6.50;3.60;;;;;;;;;;5096052;28;20459;-74
2021/09/16 10:59:03;;;;;;;9.40;3.03;;;;;;;;;;5092826;28;20546;-73
2021/09/16 11:01:49;;;;;;;11.57;3.23;;;;;;;;;;5094123;28;20487;-71
2021/09/16 11:04:18;;;;;;;4.40;3.10;;;;;;;;;;5083871;28;20550;-72
2021/09/16 11:06:47;;;;;;;6.80;4.87;;;;;;;;;;5074430;28;20464;-73
2021/09/16 11:09:34;;;;;;;5.40;4.50;;;;;;;;;;5074593;28;20511;-72
2021/09/16 11:12:03;;;;;;;7.83;3.53;;;;;;;;;;5073352;28;20483;-71
2021/09/16 11:14:35;;;;;;;3.93;3.57;;;;;;;;;;5073816;28;20475;-72
2021/09/16 11:17:04;;;;;;;6.47;3.20;;;;;;;;;;5074251;28;20455;-70
2021/09/16 11:19:39;;;;;;;3.40;3.10;;;;;;;;;;5089081;28;20452;-73
2021/09/16 11:22:35;;;;;;;7.83;3.40;;;;;;;;;;5093218;28;20455;-72
2021/09/16 11:25:10;;;;;;;5.83;3.80;;;;;;;;;;5085605;28;20475;-72
2021/09/16 11:27:41;;;;;;;6.20;3.70;;;;;;;;;;5093186;28;20458;-72
2021/09/16 11:30:16;;;;;;;4.53;3.20;;;;;;;;;;5092407;28;20459;-71
2021/09/16 11:32:45;;;;;;;8.50;3.27;;;;;;;;;;5090555;28;20455;-72
2021/09/16 11:35:19;;;;;;;8.90;4.63;;;;;;;;;;5093841;28;20538;-73
2021/09/16 11:37:55;;;;;;;10.83;3.53;;;;;;;;;;5097723;28;20705;-72
2021/09/16 11:40:24;;;;;;;6.40;3.57;;;;;;;;;;5097145;28;20611;-72
2021/09/16 11:42:53;;;;;;;5.60;3.50;;;;;;;;;;5097369;27;20455;-72
2021/09/16 11:45:22;;;;;;;7.23;3.80;;;;;;;;;;5088835;28;20483;-71
2021/09/16 11:50:38;;;;;;;4.60;3.30;;;;;;;;;;5075668;28;20873;-71
2021/09/16 11:53:12;;;;;;;3.23;2.40;;;;;;;;;;5097173;28;20542;-71
2021/09/16 11:55:41;;;;;;;4.47;3.30;;;;;;;;;;5096960;28;21083;-72
2021/09/16 11:58:13;;;;;;;2.27;1.70;;;;;;;;;;5094240;28;20447;-71
2021/09/16 12:00:43;;;;;;;2.80;1.90;;;;;;;;;;5093997;28;20578;-72
2021/09/16 12:03:12;;;;;;;5.13;2.50;;;;;;;;;;5086348;28;20444;-72
2021/09/16 12:05:42;;;;;;;2.80;1.70;;;;;;;;;;5081107;28;20511;-71
2021/09/16 12:08:12;;;;;;;3.20;1.53;;;;;;;;;;5096851;28;20936;-71
2021/09/16 12:10:45;;;;;;;2.67;1.73;;;;;;;;;;5096296;28;20472;-72
2021/09/16 12:13:15;;;;;;;4.07;1.90;;;;;;;;;;5082600;28;20448;-73
2021/09/16 12:15:44;;;;;;;4.30;1.53;;;;;;;;;;5096229;28;20478;-73
2021/09/16 12:18:13;;;;;;;1.33;0.83;;;;;;;;;;5093689;28;20475;-72
2021/09/16 12:20:42;;;;;;;1.60;0.87;;;;;;;;;;5096354;28;20460;-72
2021/09/16 12:23:15;;;;;;;2.97;1.27;;;;;;;;;;5096921;28;20558;-72
2021/09/16 12:25:56;;;;;;;2.27;1.17;;;;;;;;;;5097655;28;20975;-71
2021/09/16 12:28:25;;;;;;;3.30;0.90;;;;;;;;;;5096760;28;20487;-71
2021/09/16 12:30:54;;;;;;;1.67;0.80;;;;;;;;;;5096159;28;20491;-71
2021/09/16 12:33:32;;;;;;;3.57;0.97;;;;;;;;;;5094843;28;20558;-73
2021/09/16 12:36:14;;;;;;;5.00;1.30;;;;;;;;;;5093766;28;20561;-71
2021/09/16 12:38:46;;;;;;;5.07;1.20;;;;;;;;;;5095003;28;21042;-71
2021/09/16 12:41:33;;;;;;;1.40;0.90;;;;;;;;;;5096185;28;20467;-72
2021/09/16 12:44:04;;;;;;;2.37;1.07;;;;;;;;;;5096107;28;20490;-70
2021/09/16 12:46:41;;;;;;;3.30;1.30;;;;;;;;;;5096000;28;20546;-71
2021/09/16 12:49:10;;;;;;;2.10;1.20;;;;;;;;;;5096666;28;20451;-71
2021/09/16 12:51:54;;;;;;;2.33;1.37;;;;;;;;;;5096774;28;20471;-71
2021/09/16 12:54:34;;;;;;;2.00;1.07;;;;;;;;;;5096078;28;20455;-72
2021/09/16 12:57:10;;;;;;;2.80;2.07;;;;;;;;;;5084305;28;20480;-72
2021/09/16 12:59:46;;;;;;;1.57;0.83;;;;;;;;;;5095266;28;20459;-71
2021/09/16 13:02:22;;;;;;;2.97;1.27;;;;;;;;;;5097088;28;20898;-71
2021/09/16 13:04:59;;;;;;;4.43;1.17;;;;;;;;;;5098912;27;20481;-72
2021/09/16 13:07:37;;;;;;;2.70;1.63;;;;;;;;;;5095881;28;20455;-70
2021/09/16 13:10:29;;;;;;;2.43;1.33;;;;;;;;;;5095158;28;20491;-70
2021/09/16 13:13:03;;;;;;;2.50;1.10;;;;;;;;;;5094844;28;20535;-71
2021/09/16 13:15:37;;;;;;;2.03;1.03;;;;;;;;;;5095952;28;20797;-71
2021/09/16 13:18:08;;;;;;;2.73;1.50;;;;;;;;;;5095769;28;20462;-70
2021/09/16 13:20:41;;;;;;;2.60;1.43;;;;;;;;;;5080663;28;20468;-70
2021/09/16 13:23:15;;;;;;;5.27;1.23;;;;;;;;;;5091996;28;20875;-70
2021/09/16 13:25:46;;;;;;;2.50;1.37;;;;;;;;;;5094861;28;20483;-70
2021/09/16 13:28:18;;;;;;;3.17;1.50;;;;;;;;;;5082037;28;20473;-70
2021/09/16 13:30:47;;;;;;;2.50;1.50;;;;;;;;;;5085869;28;20465;-71
2021/09/16 13:33:17;;;;;;;4.90;0.90;;;;;;;;;;5088917;28;21086;-71
2021/09/16 13:35:45;;;;;;;3.57;0.90;;;;;;;;;;5087407;28;20452;-70
2021/09/16 13:38:13;;;;;;;2.90;1.00;;;;;;;;;;5095398;28;20826;-69
2021/09/16 13:40:46;;;;;;;1.87;1.03;;;;;;;;;;5091069;28;21089;-69
2021/09/16 13:43:28;;;;;;;4.30;1.33;;;;;;;;;;5087344;28;20443;-70
2021/09/16 13:46:00;;;;;;;3.40;1.27;;;;;;;;;;5084033;28;20475;-70
2021/09/16 13:48:29;;;;;;;1.57;0.80;;;;;;;;;;5094382;28;20462;-70
2021/09/16 13:51:00;;;;;;;3.60;1.00;;;;;;;;;;5087621;28;20471;-70
2021/09/16 13:53:28;;;;;;;4.60;1.10;;;;;;;;;;5094728;28;20482;-70
2021/09/16 13:55:56;;;;;;;3.73;2.23;;;;;;;;;;5082943;28;20468;-70
2021/09/16 13:58:25;;;;;;;3.30;1.00;;;;;;;;;;5074810;28;20453;-69
2021/09/16 14:00:57;;;;;;;2.47;1.03;;;;;;;;;;5074599;28;20547;-70
2021/09/16 14:03:43;;;;;;;;;;;;;;;;;;;;;
2021/09/16 14:06:19;;;;;;;4.23;1.40;;;;;;;;;;5079545;28;20490;-69
2021/09/16 14:08:51;;;;;;;3.80;0.80;;;;;;;;;;5095207;28;20457;-70
2021/09/16 14:11:26;;;;;;;5.80;1.63;;;;;;;;;;5094370;28;20468;-69
2021/09/16 14:14:00;;;;;;;2.10;0.80;;;;;;;;;;5095027;28;20479;-70
2021/09/16 14:16:35;;;;;;;3.90;1.13;;;;;;;;;;5094394;28;20917;-70
2021/09/16 14:19:14;;;;;;;2.00;0.90;;;;;;;;;;5093564;28;20462;-70
2021/09/16 14:21:44;;;;;;;2.33;1.00;;;;;;;;;;5089592;27;20455;-70
2021/09/16 14:24:12;;;;;;;3.30;1.20;;;;;;;;;;5091843;28;20478;-70
2021/09/16 14:26:54;;;;;;;2.93;1.53;;;;;;;;;;5092095;28;20744;-71
2021/09/16 14:29:27;;;;;;;1.77;1.10;;;;;;;;;;5065603;28;20453;-70
2021/09/16 14:32:08;;;;;;;2.90;1.20;;;;;;;;;;5087211;27;20541;-70
2021/09/16 14:34:42;;;;;;;2.57;1.30;;;;;;;;;;5078372;28;20456;-70
2021/09/16 14:37:27;;;;;;;3.87;1.53;;;;;;;;;;5086694;28;20751;-70
2021/09/16 14:40:04;;;;;;;8.13;2.10;;;;;;;;;;5083103;28;20730;-71
2021/09/16 14:42:56;;;;;;;3.77;1.50;;;;;;;;;;5085738;28;20451;-71
2021/09/16 14:45:44;;;;;;;5.73;1.10;;;;;;;;;;5091843;28;20456;-71
2021/09/16 14:48:47;;;;;;;2.37;1.33;;;;;;;;;;5083070;28;20579;-72
2021/09/16 14:51:41;;;;;;;1.97;0.90;;;;;;;;;;5087280;28;20455;-71
2021/09/16 14:54:38;;;;;;;3.00;1.37;;;;;;;;;;5094537;28;20874;-71
2021/09/16 14:57:27;;;;;;;2.30;1.30;;;;;;;;;;5090203;28;20467;-71
2021/09/16 15:03:04;;;;;;;3.30;1.60;;;;;;;;;;5078852;28;20511;-70
2021/09/16 15:05:46;;;;;;;3.03;1.20;;;;;;;;;;5089566;28;20928;-70
2021/09/16 15:08:14;;;;;;;4.23;1.20;;;;;;;;;;5082407;28;20448;-70
2021/09/16 15:10:52;;;;;;;3.33;1.40;;;;;;;;;;5095168;28;20516;-72
2021/09/16 15:13:20;;;;;;;3.60;1.37;;;;;;;;;;5097407;28;20451;-72